sensor_id;sensor_type;location;lat;lon;timestamp;P1;durP1;ratioP1;P2;durP2;ratioP2
24206;SDS011;12351;52.284;9.160;2023-12-29T00:01:16;1.92;;;0.75;;
24206;SDS011;12351;52.284;9.160;2023-12-29T00:04:03;5.62;;;1.27;;
24206;SDS011;12351;52.284;9.160;2023-12-29T00:06:51;6.80;;;1.20;;
24206;SDS011;12351;52.284;9.160;2023-12-29T00:12:29;3.17;;;1.20;;
24206;SDS011;12351;52.284;9.160;2023-12-29T00:15:17;3.12;;;1.00;;
24206;SDS011;12351;52.284;9.160;2023-12-29T00:18:04;4.92;;;0.88;;
24206;SDS011;12351;52.284;9.160;2023-12-29T00:20:51;6.80;;;1.25;;
24206;SDS011;12351;52.284;9.160;2023-12-29T00:23:41;5.92;;;1.00;;
24206;SDS011;12351;52.284;9.160;2023-12-29T00:26:29;2.55;;;0.90;;
24206;SDS011;12351;52.284;9.160;2023-12-29T00:29:15;5.62;;;1.20;;
24206;SDS011;12351;52.284;9.160;2023-12-29T00:32:02;3.52;;;1.00;;
24206;SDS011;12351;52.284;9.160;2023-12-29T00:34:50;3.98;;;0.88;;
24206;SDS011;12351;52.284;9.160;2023-12-29T00:37:37;2.98;;;0.80;;
24206;SDS011;12351;52.284;9.160;2023-12-29T00:40:24;4.50;;;1.00;;
24206;SDS011;12351;52.284;9.160;2023-12-29T00:43:11;4.50;;;1.30;;
24206;SDS011;12351;52.284;9.160;2023-12-29T00:48:48;6.70;;;1.22;;
24206;SDS011;12351;52.284;9.160;2023-12-29T00:51:39;6.45;;;0.98;;
24206;SDS011;12351;52.284;9.160;2023-12-29T00:54:26;6.05;;;0.88;;
24206;SDS011;12351;52.284;9.160;2023-12-29T00:57:14;5.60;;;0.90;;
24206;SDS011;12351;52.284;9.160;2023-12-29T01:00:01;4.90;;;1.05;;
24206;SDS011;12351;52.284;9.160;2023-12-29T01:02:52;5.05;;;1.10;;
24206;SDS011;12351;52.284;9.160;2023-12-29T01:05:39;3.65;;;0.68;;
24206;SDS011;12351;52.284;9.160;2023-12-29T01:08:26;5.62;;;1.02;;
24206;SDS011;12351;52.284;9.160;2023-12-29T01:11:13;5.20;;;0.90;;
24206;SDS011;12351;52.284;9.160;2023-12-29T01:14:00;5.70;;;1.12;;
24206;SDS011;12351;52.284;9.160;2023-12-29T01:16:47;4.50;;;1.00;;
24206;SDS011;12351;52.284;9.160;2023-12-29T01:19:34;2.62;;;0.78;;
24206;SDS011;12351;52.284;9.160;2023-12-29T01:22:22;4.47;;;1.00;;
24206;SDS011;12351;52.284;9.160;2023-12-29T01:25:09;5.70;;;0.93;;
24206;SDS011;12351;52.284;9.160;2023-12-29T01:27:56;5.80;;;1.20;;
24206;SDS011;12351;52.284;9.160;2023-12-29T01:30:43;4.92;;;0.90;;
24206;SDS011;12351;52.284;9.160;2023-12-29T01:33:29;5.37;;;1.10;;
24206;SDS011;12351;52.284;9.160;2023-12-29T01:36:17;5.80;;;1.00;;
24206;SDS011;12351;52.284;9.160;2023-12-29T01:41:55;4.87;;;1.10;;
24206;SDS011;12351;52.284;9.160;2023-12-29T01:44:42;5.05;;;1.10;;
24206;SDS011;12351;52.284;9.160;2023-12-29T01:47:29;5.20;;;0.82;;
24206;SDS011;12351;52.284;9.160;2023-12-29T01:50:17;4.45;;;0.90;;
24206;SDS011;12351;52.284;9.160;2023-12-29T01:53:06;8.00;;;1.07;;
24206;SDS011;12351;52.284;9.160;2023-12-29T01:55:54;4.28;;;0.95;;
24206;SDS011;12351;52.284;9.160;2023-12-29T01:58:42;4.75;;;1.20;;
24206;SDS011;12351;52.284;9.160;2023-12-29T02:01:33;3.37;;;0.75;;
24206;SDS011;12351;52.284;9.160;2023-12-29T02:04:23;5.70;;;0.90;;
24206;SDS011;12351;52.284;9.160;2023-12-29T02:07:11;2.77;;;0.80;;
24206;SDS011;12351;52.284;9.160;2023-12-29T02:09:58;4.70;;;0.88;;
24206;SDS011;12351;52.284;9.160;2023-12-29T02:12:47;3.40;;;0.80;;
24206;SDS011;12351;52.284;9.160;2023-12-29T02:15:34;2.87;;;0.80;;
24206;SDS011;12351;52.284;9.160;2023-12-29T02:18:21;3.20;;;0.90;;
24206;SDS011;12351;52.284;9.160;2023-12-29T02:21:10;4.05;;;0.80;;
24206;SDS011;12351;52.284;9.160;2023-12-29T02:23:57;4.20;;;0.98;;
24206;SDS011;12351;52.284;9.160;2023-12-29T02:26:45;4.90;;;1.10;;
24206;SDS011;12351;52.284;9.160;2023-12-29T02:29:34;3.90;;;0.80;;
24206;SDS011;12351;52.284;9.160;2023-12-29T02:32:23;5.75;;;1.10;;
24206;SDS011;12351;52.284;9.160;2023-12-29T02:35:14;2.80;;;0.88;;
24206;SDS011;12351;52.284;9.160;2023-12-29T02:40:51;3.52;;;1.07;;
24206;SDS011;12351;52.284;9.160;2023-12-29T02:43:38;3.47;;;0.90;;
24206;SDS011;12351;52.284;9.160;2023-12-29T02:46:25;2.50;;;0.90;;
24206;SDS011;12351;52.284;9.160;2023-12-29T02:52:01;5.47;;;0.70;;
24206;SDS011;12351;52.284;9.160;2023-12-29T02:54:49;3.20;;;1.00;;
24206;SDS011;12351;52.284;9.160;2023-12-29T02:57:37;5.92;;;0.90;;
24206;SDS011;12351;52.284;9.160;2023-12-29T03:00:24;7.03;;;1.00;;
24206;SDS011;12351;52.284;9.160;2023-12-29T03:03:11;3.77;;;0.75;;
24206;SDS011;12351;52.284;9.160;2023-12-29T03:05:59;2.65;;;0.80;;
24206;SDS011;12351;52.284;9.160;2023-12-29T03:08:47;3.35;;;0.62;;
24206;SDS011;12351;52.284;9.160;2023-12-29T03:11:34;4.67;;;0.70;;
24206;SDS011;12351;52.284;9.160;2023-12-29T03:14:21;3.87;;;0.70;;
24206;SDS011;12351;52.284;9.160;2023-12-29T03:17:08;3.77;;;0.62;;
24206;SDS011;12351;52.284;9.160;2023-12-29T03:19:56;3.37;;;0.70;;
24206;SDS011;12351;52.284;9.160;2023-12-29T03:22:44;1.25;;;0.65;;
24206;SDS011;12351;52.284;9.160;2023-12-29T03:25:30;2.05;;;0.50;;
24206;SDS011;12351;52.284;9.160;2023-12-29T03:28:17;2.00;;;0.47;;
24206;SDS011;12351;52.284;9.160;2023-12-29T03:31:05;4.17;;;0.50;;
24206;SDS011;12351;52.284;9.160;2023-12-29T03:33:52;2.40;;;0.65;;
24206;SDS011;12351;52.284;9.160;2023-12-29T03:36:39;4.37;;;0.88;;
24206;SDS011;12351;52.284;9.160;2023-12-29T03:39:26;1.52;;;0.55;;
24206;SDS011;12351;52.284;9.160;2023-12-29T03:42:14;3.92;;;0.60;;
24206;SDS011;12351;52.284;9.160;2023-12-29T03:45:01;3.95;;;0.70;;
24206;SDS011;12351;52.284;9.160;2023-12-29T03:47:48;4.53;;;0.80;;
24206;SDS011;12351;52.284;9.160;2023-12-29T03:50:36;3.27;;;0.45;;
24206;SDS011;12351;52.284;9.160;2023-12-29T03:53:23;2.65;;;0.42;;
24206;SDS011;12351;52.284;9.160;2023-12-29T03:58:59;3.27;;;1.00;;
24206;SDS011;12351;52.284;9.160;2023-12-29T04:01:47;3.95;;;0.72;;
24206;SDS011;12351;52.284;9.160;2023-12-29T04:07:23;2.47;;;0.60;;
24206;SDS011;12351;52.284;9.160;2023-12-29T04:10:10;3.65;;;0.80;;
24206;SDS011;12351;52.284;9.160;2023-12-29T04:12:57;2.20;;;0.88;;
24206;SDS011;12351;52.284;9.160;2023-12-29T04:15:45;1.92;;;0.55;;
24206;SDS011;12351;52.284;9.160;2023-12-29T04:18:33;2.55;;;0.72;;
24206;SDS011;12351;52.284;9.160;2023-12-29T04:21:20;2.02;;;0.50;;
24206;SDS011;12351;52.284;9.160;2023-12-29T04:24:07;2.98;;;0.50;;
24206;SDS011;12351;52.284;9.160;2023-12-29T04:26:54;2.22;;;0.65;;
24206;SDS011;12351;52.284;9.160;2023-12-29T04:29:42;2.12;;;0.50;;
24206;SDS011;12351;52.284;9.160;2023-12-29T04:32:30;1.25;;;0.50;;
24206;SDS011;12351;52.284;9.160;2023-12-29T04:35:18;1.17;;;0.50;;
24206;SDS011;12351;52.284;9.160;2023-12-29T04:38:05;3.12;;;0.82;;
24206;SDS011;12351;52.284;9.160;2023-12-29T04:40:52;3.50;;;0.72;;
24206;SDS011;12351;52.284;9.160;2023-12-29T04:43:40;1.37;;;0.60;;
24206;SDS011;12351;52.284;9.160;2023-12-29T04:46:27;3.27;;;0.80;;
24206;SDS011;12351;52.284;9.160;2023-12-29T04:49:14;1.92;;;0.60;;
24206;SDS011;12351;52.284;9.160;2023-12-29T04:52:01;3.35;;;0.75;;
24206;SDS011;12351;52.284;9.160;2023-12-29T04:54:48;2.05;;;0.72;;
24206;SDS011;12351;52.284;9.160;2023-12-29T04:57:35;3.72;;;0.90;;
24206;SDS011;12351;52.284;9.160;2023-12-29T05:00:23;2.75;;;0.80;;
24206;SDS011;12351;52.284;9.160;2023-12-29T05:03:10;1.67;;;0.80;;
24206;SDS011;12351;52.284;9.160;2023-12-29T05:05:57;3.10;;;1.00;;
24206;SDS011;12351;52.284;9.160;2023-12-29T05:08:44;3.58;;;1.02;;
24206;SDS011;12351;52.284;9.160;2023-12-29T05:11:31;2.62;;;1.07;;
24206;SDS011;12351;52.284;9.160;2023-12-29T05:14:18;5.60;;;1.27;;
24206;SDS011;12351;52.284;9.160;2023-12-29T05:17:05;3.70;;;1.00;;
24206;SDS011;12351;52.284;9.160;2023-12-29T05:19:56;5.15;;;1.10;;
24206;SDS011;12351;52.284;9.160;2023-12-29T05:22:43;2.60;;;1.02;;
24206;SDS011;12351;52.284;9.160;2023-12-29T05:25:30;6.10;;;1.30;;
24206;SDS011;12351;52.284;9.160;2023-12-29T05:28:18;5.10;;;1.25;;
24206;SDS011;12351;52.284;9.160;2023-12-29T05:31:05;4.58;;;1.35;;
24206;SDS011;12351;52.284;9.160;2023-12-29T05:33:52;7.03;;;1.15;;
24206;SDS011;12351;52.284;9.160;2023-12-29T05:36:40;3.15;;;1.20;;
24206;SDS011;12351;52.284;9.160;2023-12-29T05:39:27;5.25;;;1.60;;
24206;SDS011;12351;52.284;9.160;2023-12-29T05:42:14;5.33;;;1.30;;
24206;SDS011;12351;52.284;9.160;2023-12-29T05:45:01;6.80;;;1.45;;
24206;SDS011;12351;52.284;9.160;2023-12-29T05:47:49;3.90;;;1.52;;
24206;SDS011;12351;52.284;9.160;2023-12-29T05:50:36;5.60;;;1.40;;
24206;SDS011;12351;52.284;9.160;2023-12-29T05:53:24;3.58;;;1.40;;
24206;SDS011;12351;52.284;9.160;2023-12-29T05:56:12;2.72;;;1.10;;
24206;SDS011;12351;52.284;9.160;2023-12-29T05:58:59;3.80;;;1.22;;
24206;SDS011;12351;52.284;9.160;2023-12-29T06:01:46;7.70;;;1.60;;
24206;SDS011;12351;52.284;9.160;2023-12-29T06:04:33;5.80;;;1.52;;
24206;SDS011;12351;52.284;9.160;2023-12-29T06:07:23;5.22;;;1.50;;
24206;SDS011;12351;52.284;9.160;2023-12-29T06:10:10;4.53;;;1.55;;
24206;SDS011;12351;52.284;9.160;2023-12-29T06:12:58;5.97;;;1.55;;
24206;SDS011;12351;52.284;9.160;2023-12-29T06:15:47;4.20;;;1.47;;
24206;SDS011;12351;52.284;9.160;2023-12-29T06:18:35;4.45;;;1.50;;
24206;SDS011;12351;52.284;9.160;2023-12-29T06:21:22;6.17;;;1.40;;
24206;SDS011;12351;52.284;9.160;2023-12-29T06:24:10;6.12;;;1.42;;
24206;SDS011;12351;52.284;9.160;2023-12-29T06:26:57;6.28;;;1.20;;
24206;SDS011;12351;52.284;9.160;2023-12-29T06:29:44;7.65;;;1.62;;
24206;SDS011;12351;52.284;9.160;2023-12-29T06:32:31;7.95;;;1.60;;
24206;SDS011;12351;52.284;9.160;2023-12-29T06:35:18;6.90;;;1.37;;
24206;SDS011;12351;52.284;9.160;2023-12-29T06:38:08;5.85;;;1.35;;
24206;SDS011;12351;52.284;9.160;2023-12-29T06:40:56;7.12;;;1.60;;
24206;SDS011;12351;52.284;9.160;2023-12-29T06:43:47;7.22;;;1.30;;
24206;SDS011;12351;52.284;9.160;2023-12-29T06:46:36;4.83;;;1.30;;
24206;SDS011;12351;52.284;9.160;2023-12-29T06:49:23;7.30;;;1.50;;
24206;SDS011;12351;52.284;9.160;2023-12-29T06:52:10;6.35;;;1.57;;
24206;SDS011;12351;52.284;9.160;2023-12-29T06:54:57;4.47;;;1.32;;
24206;SDS011;12351;52.284;9.160;2023-12-29T06:57:47;5.20;;;1.47;;
24206;SDS011;12351;52.284;9.160;2023-12-29T07:00:34;6.60;;;1.60;;
24206;SDS011;12351;52.284;9.160;2023-12-29T07:03:22;5.08;;;1.40;;
24206;SDS011;12351;52.284;9.160;2023-12-29T07:06:09;5.35;;;1.47;;
24206;SDS011;12351;52.284;9.160;2023-12-29T07:08:57;6.45;;;1.65;;
24206;SDS011;12351;52.284;9.160;2023-12-29T07:11:47;4.65;;;1.30;;
24206;SDS011;12351;52.284;9.160;2023-12-29T07:14:35;6.05;;;1.40;;
24206;SDS011;12351;52.284;9.160;2023-12-29T07:17:26;9.75;;;1.57;;
24206;SDS011;12351;52.284;9.160;2023-12-29T07:20:14;6.78;;;1.70;;
24206;SDS011;12351;52.284;9.160;2023-12-29T07:23:02;6.83;;;1.40;;
24206;SDS011;12351;52.284;9.160;2023-12-29T07:25:49;8.45;;;1.70;;
24206;SDS011;12351;52.284;9.160;2023-12-29T07:28:37;6.55;;;1.50;;
24206;SDS011;12351;52.284;9.160;2023-12-29T07:31:24;6.97;;;1.65;;
24206;SDS011;12351;52.284;9.160;2023-12-29T07:34:11;6.55;;;1.35;;
24206;SDS011;12351;52.284;9.160;2023-12-29T07:36:59;8.30;;;1.55;;
24206;SDS011;12351;52.284;9.160;2023-12-29T07:39:45;6.12;;;1.40;;
24206;SDS011;12351;52.284;9.160;2023-12-29T07:42:33;5.40;;;1.40;;
24206;SDS011;12351;52.284;9.160;2023-12-29T07:45:20;4.70;;;1.30;;
24206;SDS011;12351;52.284;9.160;2023-12-29T07:48:07;6.15;;;1.52;;
24206;SDS011;12351;52.284;9.160;2023-12-29T07:50:54;5.72;;;1.30;;
24206;SDS011;12351;52.284;9.160;2023-12-29T07:53:45;9.38;;;1.82;;
24206;SDS011;12351;52.284;9.160;2023-12-29T07:56:34;6.58;;;1.60;;
24206;SDS011;12351;52.284;9.160;2023-12-29T07:59:22;5.83;;;1.30;;
24206;SDS011;12351;52.284;9.160;2023-12-29T08:02:10;8.43;;;1.50;;
24206;SDS011;12351;52.284;9.160;2023-12-29T08:04:57;6.20;;;1.55;;
24206;SDS011;12351;52.284;9.160;2023-12-29T08:07:44;7.22;;;1.40;;
24206;SDS011;12351;52.284;9.160;2023-12-29T08:10:31;9.10;;;1.92;;
24206;SDS011;12351;52.284;9.160;2023-12-29T08:13:18;6.83;;;1.35;;
24206;SDS011;12351;52.284;9.160;2023-12-29T08:16:06;11.75;;;1.50;;
24206;SDS011;12351;52.284;9.160;2023-12-29T08:18:53;7.83;;;1.62;;
24206;SDS011;12351;52.284;9.160;2023-12-29T08:21:40;6.92;;;1.50;;
24206;SDS011;12351;52.284;9.160;2023-12-29T08:24:27;4.92;;;1.40;;
24206;SDS011;12351;52.284;9.160;2023-12-29T08:27:22;4.45;;;1.30;;
24206;SDS011;12351;52.284;9.160;2023-12-29T08:30:05;4.85;;;1.17;;
24206;SDS011;12351;52.284;9.160;2023-12-29T08:32:53;5.53;;;1.30;;
24206;SDS011;12351;52.284;9.160;2023-12-29T08:35:40;6.25;;;1.30;;
24206;SDS011;12351;52.284;9.160;2023-12-29T08:38:27;8.68;;;1.77;;
24206;SDS011;12351;52.284;9.160;2023-12-29T08:41:15;10.08;;;1.77;;
24206;SDS011;12351;52.284;9.160;2023-12-29T08:44:03;5.80;;;1.65;;
24206;SDS011;12351;52.284;9.160;2023-12-29T08:46:50;7.55;;;1.60;;
24206;SDS011;12351;52.284;9.160;2023-12-29T08:49:37;8.55;;;1.42;;
24206;SDS011;12351;52.284;9.160;2023-12-29T08:52:26;6.58;;;1.40;;
24206;SDS011;12351;52.284;9.160;2023-12-29T08:55:13;5.53;;;1.37;;
24206;SDS011;12351;52.284;9.160;2023-12-29T08:57:59;5.00;;;1.12;;
24206;SDS011;12351;52.284;9.160;2023-12-29T09:00:47;9.20;;;1.40;;
24206;SDS011;12351;52.284;9.160;2023-12-29T09:03:34;8.00;;;1.32;;
24206;SDS011;12351;52.284;9.160;2023-12-29T09:06:21;7.42;;;1.42;;
24206;SDS011;12351;52.284;9.160;2023-12-29T09:09:08;6.50;;;1.30;;
24206;SDS011;12351;52.284;9.160;2023-12-29T09:11:57;11.83;;;1.62;;
24206;SDS011;12351;52.284;9.160;2023-12-29T09:14:45;6.17;;;1.17;;
24206;SDS011;12351;52.284;9.160;2023-12-29T09:17:33;8.13;;;1.30;;
24206;SDS011;12351;52.284;9.160;2023-12-29T09:20:20;7.78;;;1.37;;
24206;SDS011;12351;52.284;9.160;2023-12-29T09:23:09;7.65;;;1.30;;
24206;SDS011;12351;52.284;9.160;2023-12-29T09:25:56;6.45;;;1.17;;
24206;SDS011;12351;52.284;9.160;2023-12-29T09:28:43;4.28;;;0.82;;
24206;SDS011;12351;52.284;9.160;2023-12-29T09:31:30;6.78;;;1.30;;
24206;SDS011;12351;52.284;9.160;2023-12-29T09:34:17;5.10;;;0.88;;
24206;SDS011;12351;52.284;9.160;2023-12-29T09:37:04;5.45;;;1.40;;
24206;SDS011;12351;52.284;9.160;2023-12-29T09:39:52;5.22;;;1.12;;
24206;SDS011;12351;52.284;9.160;2023-12-29T09:42:39;5.72;;;0.90;;
24206;SDS011;12351;52.284;9.160;2023-12-29T09:45:29;4.53;;;0.90;;
24206;SDS011;12351;52.284;9.160;2023-12-29T09:48:19;2.50;;;0.70;;
24206;SDS011;12351;52.284;9.160;2023-12-29T09:51:09;5.72;;;1.10;;
24206;SDS011;12351;52.284;9.160;2023-12-29T09:53:57;6.87;;;0.80;;
24206;SDS011;12351;52.284;9.160;2023-12-29T09:56:45;2.40;;;0.80;;
24206;SDS011;12351;52.284;9.160;2023-12-29T09:59:32;3.50;;;0.88;;
24206;SDS011;12351;52.284;9.160;2023-12-29T10:02:22;3.80;;;1.00;;
24206;SDS011;12351;52.284;9.160;2023-12-29T10:05:09;2.50;;;0.80;;
24206;SDS011;12351;52.284;9.160;2023-12-29T10:07:56;5.53;;;0.82;;
24206;SDS011;12351;52.284;9.160;2023-12-29T10:10:45;4.72;;;1.05;;
24206;SDS011;12351;52.284;9.160;2023-12-29T10:13:35;2.05;;;0.80;;
24206;SDS011;12351;52.284;9.160;2023-12-29T10:19:16;3.12;;;0.70;;
24206;SDS011;12351;52.284;9.160;2023-12-29T10:24:53;4.40;;;0.80;;
24206;SDS011;12351;52.284;9.160;2023-12-29T10:27:40;2.05;;;0.65;;
24206;SDS011;12351;52.284;9.160;2023-12-29T10:30:28;1.75;;;0.70;;
24206;SDS011;12351;52.284;9.160;2023-12-29T10:36:06;2.75;;;0.90;;
24206;SDS011;12351;52.284;9.160;2023-12-29T10:41:43;1.70;;;0.70;;
24206;SDS011;12351;52.284;9.160;2023-12-29T10:44:31;5.15;;;0.57;;
24206;SDS011;12351;52.284;9.160;2023-12-29T10:47:19;3.67;;;0.98;;
24206;SDS011;12351;52.284;9.160;2023-12-29T10:50:06;2.87;;;0.85;;
24206;SDS011;12351;52.284;9.160;2023-12-29T10:55:43;2.90;;;0.70;;
24206;SDS011;12351;52.284;9.160;2023-12-29T10:58:31;2.67;;;0.80;;
24206;SDS011;12351;52.284;9.160;2023-12-29T11:01:19;1.90;;;0.82;;
24206;SDS011;12351;52.284;9.160;2023-12-29T11:04:08;1.30;;;0.70;;
24206;SDS011;12351;52.284;9.160;2023-12-29T11:06:56;4.03;;;0.80;;
24206;SDS011;12351;52.284;9.160;2023-12-29T11:09:43;2.77;;;0.90;;
24206;SDS011;12351;52.284;9.160;2023-12-29T11:12:32;2.00;;;0.90;;
24206;SDS011;12351;52.284;9.160;2023-12-29T11:15:20;1.75;;;0.75;;
24206;SDS011;12351;52.284;9.160;2023-12-29T11:18:11;3.12;;;0.90;;
24206;SDS011;12351;52.284;9.160;2023-12-29T11:20:59;2.67;;;0.70;;
24206;SDS011;12351;52.284;9.160;2023-12-29T11:23:48;2.83;;;0.90;;
24206;SDS011;12351;52.284;9.160;2023-12-29T11:26:35;2.70;;;0.80;;
24206;SDS011;12351;52.284;9.160;2023-12-29T11:29:23;2.60;;;0.80;;
24206;SDS011;12351;52.284;9.160;2023-12-29T11:32:12;2.72;;;0.90;;
24206;SDS011;12351;52.284;9.160;2023-12-29T11:35:03;3.37;;;0.90;;
24206;SDS011;12351;52.284;9.160;2023-12-29T11:37:56;2.40;;;0.80;;
24206;SDS011;12351;52.284;9.160;2023-12-29T11:40:44;2.58;;;0.80;;
24206;SDS011;12351;52.284;9.160;2023-12-29T11:43:33;1.65;;;0.60;;
24206;SDS011;12351;52.284;9.160;2023-12-29T11:46:32;2.25;;;0.70;;
24206;SDS011;12351;52.284;9.160;2023-12-29T11:49:10;1.62;;;0.70;;
24206;SDS011;12351;52.284;9.160;2023-12-29T11:51:57;1.55;;;0.60;;
24206;SDS011;12351;52.284;9.160;2023-12-29T11:54:49;1.32;;;0.65;;
24206;SDS011;12351;52.284;9.160;2023-12-29T11:57:36;3.62;;;0.80;;
24206;SDS011;12351;52.284;9.160;2023-12-29T12:03:19;2.08;;;0.55;;
24206;SDS011;12351;52.284;9.160;2023-12-29T12:06:09;1.12;;;0.68;;
24206;SDS011;12351;52.284;9.160;2023-12-29T12:09:15;1.12;;;0.70;;
24206;SDS011;12351;52.284;9.160;2023-12-29T12:11:46;1.45;;;0.70;;
24206;SDS011;12351;52.284;9.160;2023-12-29T12:17:28;2.67;;;0.95;;
24206;SDS011;12351;52.284;9.160;2023-12-29T12:20:17;1.95;;;0.57;;
24206;SDS011;12351;52.284;9.160;2023-12-29T12:23:09;1.62;;;0.80;;
24206;SDS011;12351;52.284;9.160;2023-12-29T12:25:57;0.80;;;0.42;;
24206;SDS011;12351;52.284;9.160;2023-12-29T12:28:51;2.67;;;0.82;;
24206;SDS011;12351;52.284;9.160;2023-12-29T12:31:50;1.55;;;0.60;;
24206;SDS011;12351;52.284;9.160;2023-12-29T12:34:30;1.60;;;0.80;;
24206;SDS011;12351;52.284;9.160;2023-12-29T12:37:18;1.60;;;0.60;;
24206;SDS011;12351;52.284;9.160;2023-12-29T12:40:09;0.70;;;0.70;;
24206;SDS011;12351;52.284;9.160;2023-12-29T12:42:57;2.58;;;0.60;;
24206;SDS011;12351;52.284;9.160;2023-12-29T12:48:36;0.80;;;0.50;;
24206;SDS011;12351;52.284;9.160;2023-12-29T12:51:27;1.10;;;0.65;;
24206;SDS011;12351;52.284;9.160;2023-12-29T12:54:12;1.42;;;0.70;;
24206;SDS011;12351;52.284;9.160;2023-12-29T12:57:01;0.90;;;0.50;;
24206;SDS011;12351;52.284;9.160;2023-12-29T12:59:49;0.82;;;0.80;;
24206;SDS011;12351;52.284;9.160;2023-12-29T13:05:26;1.10;;;0.82;;
24206;SDS011;12351;52.284;9.160;2023-12-29T13:08:13;0.88;;;0.70;;
24206;SDS011;12351;52.284;9.160;2023-12-29T13:11:04;1.35;;;0.90;;
24206;SDS011;12351;52.284;9.160;2023-12-29T13:13:52;1.10;;;0.93;;
24206;SDS011;12351;52.284;9.160;2023-12-29T13:16:41;1.65;;;0.98;;
24206;SDS011;12351;52.284;9.160;2023-12-29T13:19:28;1.62;;;0.85;;
24206;SDS011;12351;52.284;9.160;2023-12-29T13:22:16;1.37;;;0.70;;
24206;SDS011;12351;52.284;9.160;2023-12-29T13:25:05;1.22;;;0.60;;
24206;SDS011;12351;52.284;9.160;2023-12-29T13:27:53;1.07;;;0.53;;
24206;SDS011;12351;52.284;9.160;2023-12-29T13:30:41;0.98;;;0.70;;
24206;SDS011;12351;52.284;9.160;2023-12-29T13:33:32;0.80;;;0.60;;
24206;SDS011;12351;52.284;9.160;2023-12-29T13:36:22;1.02;;;0.60;;
24206;SDS011;12351;52.284;9.160;2023-12-29T13:39:11;0.80;;;0.53;;
24206;SDS011;12351;52.284;9.160;2023-12-29T13:42:00;1.02;;;0.50;;
24206;SDS011;12351;52.284;9.160;2023-12-29T13:44:48;1.37;;;0.70;;
24206;SDS011;12351;52.284;9.160;2023-12-29T13:47:37;0.75;;;0.60;;
24206;SDS011;12351;52.284;9.160;2023-12-29T13:53:18;1.70;;;0.72;;
24206;SDS011;12351;52.284;9.160;2023-12-29T13:56:07;1.45;;;0.72;;
24206;SDS011;12351;52.284;9.160;2023-12-29T13:58:55;1.22;;;0.70;;
24206;SDS011;12351;52.284;9.160;2023-12-29T14:01:42;1.87;;;0.70;;
24206;SDS011;12351;52.284;9.160;2023-12-29T14:04:29;1.45;;;0.65;;
24206;SDS011;12351;52.284;9.160;2023-12-29T14:07:18;2.02;;;0.70;;
24206;SDS011;12351;52.284;9.160;2023-12-29T14:10:06;2.52;;;0.80;;
24206;SDS011;12351;52.284;9.160;2023-12-29T14:12:54;2.15;;;0.80;;
24206;SDS011;12351;52.284;9.160;2023-12-29T14:15:45;1.70;;;0.68;;
24206;SDS011;12351;52.284;9.160;2023-12-29T14:21:24;3.12;;;0.60;;
24206;SDS011;12351;52.284;9.160;2023-12-29T14:24:13;1.80;;;0.70;;
24206;SDS011;12351;52.284;9.160;2023-12-29T14:27:01;1.40;;;0.80;;
24206;SDS011;12351;52.284;9.160;2023-12-29T14:29:49;1.37;;;0.75;;
24206;SDS011;12351;52.284;9.160;2023-12-29T14:32:36;3.00;;;0.93;;
24206;SDS011;12351;52.284;9.160;2023-12-29T14:35:24;2.02;;;0.90;;
24206;SDS011;12351;52.284;9.160;2023-12-29T14:38:11;2.22;;;0.80;;
24206;SDS011;12351;52.284;9.160;2023-12-29T14:43:50;2.05;;;0.80;;
24206;SDS011;12351;52.284;9.160;2023-12-29T14:46:37;3.83;;;1.05;;
24206;SDS011;12351;52.284;9.160;2023-12-29T14:49:29;4.60;;;0.80;;
24206;SDS011;12351;52.284;9.160;2023-12-29T14:52:16;1.98;;;0.70;;
24206;SDS011;12351;52.284;9.160;2023-12-29T14:55:03;4.40;;;1.10;;
24206;SDS011;12351;52.284;9.160;2023-12-29T14:57:50;1.42;;;0.72;;
24206;SDS011;12351;52.284;9.160;2023-12-29T15:00:43;4.40;;;0.90;;
24206;SDS011;12351;52.284;9.160;2023-12-29T15:03:34;3.85;;;1.00;;
24206;SDS011;12351;52.284;9.160;2023-12-29T15:06:24;3.98;;;0.98;;
24206;SDS011;12351;52.284;9.160;2023-12-29T15:09:11;4.40;;;0.95;;
24206;SDS011;12351;52.284;9.160;2023-12-29T15:12:01;3.62;;;0.95;;
24206;SDS011;12351;52.284;9.160;2023-12-29T15:14:50;1.45;;;0.80;;
24206;SDS011;12351;52.284;9.160;2023-12-29T15:17:38;6.08;;;1.10;;
24206;SDS011;12351;52.284;9.160;2023-12-29T15:20:25;4.85;;;1.00;;
24206;SDS011;12351;52.284;9.160;2023-12-29T15:23:12;3.27;;;0.88;;
24206;SDS011;12351;52.284;9.160;2023-12-29T15:25:59;3.08;;;1.00;;
24206;SDS011;12351;52.284;9.160;2023-12-29T15:28:46;3.33;;;1.00;;
24206;SDS011;12351;52.284;9.160;2023-12-29T15:31:34;2.80;;;1.07;;
24206;SDS011;12351;52.284;9.160;2023-12-29T15:34:20;2.45;;;1.40;;
24206;SDS011;12351;52.284;9.160;2023-12-29T15:37:13;3.45;;;1.17;;
24206;SDS011;12351;52.284;9.160;2023-12-29T15:40:01;4.25;;;0.98;;
24206;SDS011;12351;52.284;9.160;2023-12-29T15:42:49;4.97;;;1.00;;
24206;SDS011;12351;52.284;9.160;2023-12-29T15:45:36;2.40;;;1.00;;
24206;SDS011;12351;52.284;9.160;2023-12-29T15:48:23;3.65;;;0.90;;
24206;SDS011;12351;52.284;9.160;2023-12-29T15:51:10;3.40;;;0.88;;
24206;SDS011;12351;52.284;9.160;2023-12-29T15:53:58;4.08;;;0.95;;
24206;SDS011;12351;52.284;9.160;2023-12-29T15:56:45;4.22;;;1.20;;
24206;SDS011;12351;52.284;9.160;2023-12-29T15:59:32;3.95;;;0.90;;
24206;SDS011;12351;52.284;9.160;2023-12-29T16:02:20;3.80;;;1.10;;
24206;SDS011;12351;52.284;9.160;2023-12-29T16:05:07;3.33;;;1.10;;
24206;SDS011;12351;52.284;9.160;2023-12-29T16:07:54;4.80;;;1.05;;
24206;SDS011;12351;52.284;9.160;2023-12-29T16:10:41;1.57;;;0.90;;
24206;SDS011;12351;52.284;9.160;2023-12-29T16:13:28;3.62;;;0.90;;
24206;SDS011;12351;52.284;9.160;2023-12-29T16:16:16;1.57;;;0.80;;
24206;SDS011;12351;52.284;9.160;2023-12-29T16:19:04;4.08;;;0.90;;
24206;SDS011;12351;52.284;9.160;2023-12-29T16:21:51;2.67;;;0.68;;
24206;SDS011;12351;52.284;9.160;2023-12-29T16:24:38;3.80;;;0.82;;
24206;SDS011;12351;52.284;9.160;2023-12-29T16:27:26;2.80;;;0.90;;
24206;SDS011;12351;52.284;9.160;2023-12-29T16:30:13;3.08;;;0.85;;
24206;SDS011;12351;52.284;9.160;2023-12-29T16:33:00;2.40;;;0.80;;
24206;SDS011;12351;52.284;9.160;2023-12-29T16:35:47;5.53;;;0.90;;
24206;SDS011;12351;52.284;9.160;2023-12-29T16:38:34;1.45;;;0.75;;
24206;SDS011;12351;52.284;9.160;2023-12-29T16:41:22;1.77;;;0.70;;
24206;SDS011;12351;52.284;9.160;2023-12-29T16:44:08;2.27;;;0.75;;
24206;SDS011;12351;52.284;9.160;2023-12-29T16:46:56;1.32;;;0.70;;
24206;SDS011;12351;52.284;9.160;2023-12-29T16:49:43;1.67;;;0.55;;
24206;SDS011;12351;52.284;9.160;2023-12-29T16:52:30;2.37;;;0.55;;
24206;SDS011;12351;52.284;9.160;2023-12-29T16:55:17;2.42;;;0.70;;
24206;SDS011;12351;52.284;9.160;2023-12-29T16:58:04;1.57;;;0.60;;
24206;SDS011;12351;52.284;9.160;2023-12-29T17:00:52;1.32;;;0.60;;
24206;SDS011;12351;52.284;9.160;2023-12-29T17:03:39;1.62;;;0.72;;
24206;SDS011;12351;52.284;9.160;2023-12-29T17:06:26;2.72;;;0.70;;
24206;SDS011;12351;52.284;9.160;2023-12-29T17:09:14;1.52;;;0.70;;
24206;SDS011;12351;52.284;9.160;2023-12-29T17:12:01;2.77;;;0.80;;
24206;SDS011;12351;52.284;9.160;2023-12-29T17:14:48;2.08;;;0.50;;
24206;SDS011;12351;52.284;9.160;2023-12-29T17:17:36;1.60;;;0.72;;
24206;SDS011;12351;52.284;9.160;2023-12-29T17:20:23;1.22;;;0.50;;
24206;SDS011;12351;52.284;9.160;2023-12-29T17:23:11;1.45;;;0.55;;
24206;SDS011;12351;52.284;9.160;2023-12-29T17:25:58;1.52;;;0.57;;
24206;SDS011;12351;52.284;9.160;2023-12-29T17:28:46;2.25;;;0.55;;
24206;SDS011;12351;52.284;9.160;2023-12-29T17:31:39;2.10;;;0.70;;
24206;SDS011;12351;52.284;9.160;2023-12-29T17:34:24;2.33;;;0.60;;
24206;SDS011;12351;52.284;9.160;2023-12-29T17:37:11;1.00;;;0.60;;
24206;SDS011;12351;52.284;9.160;2023-12-29T17:39:58;1.57;;;0.50;;
24206;SDS011;12351;52.284;9.160;2023-12-29T17:42:46;1.42;;;0.50;;
24206;SDS011;12351;52.284;9.160;2023-12-29T17:45:33;3.00;;;0.60;;